Umatilla, FL (32784)

3:51 PM EDT on June 30, 2015 (GMT -0400)
Safe Harbor, Lake Eustis | | Change Station
CLOSE
Current Station
Personal Weather Station
Location: Eustis, FL
Elevation: 105 ft
Nearby Weather Stations

Elev 105 ft 28.87 °N, 81.71 °W | Updated 31 seconds ago

Mostly Cloudy
Mostly Cloudy
89.6 °F
Feels Like 96 °F
N
15.0
Wind Variable Wind from West
Gusts 16.0 mph

Today
High -- | Low -- °F
--% Chance of Precip.
Yesterday
High -- | Low -- °F
Precip. -- in
6:31 AM 8:29 PM
Waxing Gibbous, 98% visible
Pressure 30.08 in
Visibility 10.0 miles
Clouds Scattered Clouds 4900 ft
Mostly Cloudy 6500 ft
Heat Index 96 °F
Dew Point 71 °F
Humidity 54%
Rainfall in
Snow Depth Not available.
UV 8 out of 12
Pollen .90 out of 12
Air Quality Not available.
Flu Activity Sporadic
METAR KLEE 301853Z 26011G15KT 10SM SCT049 BKN065 32/22 A3008 RMK AO2 SLP184 T03220217

More Conditions Fewer Conditions

Pressure 30.08 in
Visibility 10.0 miles
Clouds Scattered Clouds 4900 ft
Mostly Cloudy 6500 ft
Heat Index 96 °F
Dew Point 71 °F
Humidity 54%
Rainfall in
Snow Depth Not available.
UV 8 out of 12
Pollen .90 out of 12
Air Quality Not available.
Flu Activity Sporadic
METAR KLEE 301853Z 26011G15KT 10SM SCT049 BKN065 32/22 A3008 RMK AO2 SLP184 T03220217

More Conditions Fewer Conditions

Nowcast | as of 3:31 PM EDT on June 30, 2015

Drier in the lower to mid levels of the atmosphere was limiting convective coverage thus far this afternoon. Slightly higher moistuter levels across northern Brevard and Volusia counties and the chance for some thunderstorms to move southeast from North Florida will keep the risk for isolated showers and storms across these areas. Along the Treasure Coast...the East Coast sea breeze was beginning to move onshore across Martin and southern St. Lucie County but the drier airmass in this region should preclude much convective develop there into late afternoon. Temperatures were rising into the lower to mid 90s at 3 PM and will remain very warm through early evening. Additional details...including graphics are available online at: http://www.Srh.NOAA.Gov/mlb/blog.Php

×

10-Day Weather Forecast

×

Almanac

Astronomy

Jun. 30, 2015 Rise Set
Actual Time
Civil Twilight
Nautical Twilight
Astronomical Twilight
Moon
Length of Visible Light
Length of Day
Tomorrow will be .
, % of the Moon is Illuminated

Today's Extremes

State Highs State Lows

Community

WunderPhotos

Upload Photos

1,834,067 photos uploaded!

WunderBlogs® & News

Nearby

Air Quality

  Air Quality AQ Index Pollutant
Not available.

Snow Depth

Station Depth Elevation

Earthquake Activity

City Distance Mag. Time & Date
Minimum magnitude displayed is 2.5.

Coastal Water Temperatures

Place Temperature

Stations

Nearby Weather Stations

Station Location Temp. Windchill Dew Point Humidity Wind Precip. Elev Updated Type